sensor_id;sensor_type;location;lat;lon;timestamp;temperature;humidity
75022;SHT31;63583;49.976;20.182;2024-01-27T00:01:59;5.23;91.64
75022;SHT31;63583;49.976;20.182;2024-01-27T00:04:25;5.31;91.82
75022;SHT31;63583;49.976;20.182;2024-01-27T00:06:50;5.28;91.44
75022;SHT31;63583;49.976;20.182;2024-01-27T00:09:16;5.30;91.66
75022;SHT31;63583;49.976;20.182;2024-01-27T00:11:42;5.27;90.62
75022;SHT31;63583;49.976;20.182;2024-01-27T00:14:08;5.35;88.81
75022;SHT31;63583;49.976;20.182;2024-01-27T00:16:33;5.45;86.31
75022;SHT31;63583;49.976;20.182;2024-01-27T00:18:59;5.45;85.88
75022;SHT31;63583;49.976;20.182;2024-01-27T00:21:25;5.41;84.48
75022;SHT31;63583;49.976;20.182;2024-01-27T00:23:51;5.27;84.15
75022;SHT31;63583;49.976;20.182;2024-01-27T00:26:16;5.20;84.12
75022;SHT31;63583;49.976;20.182;2024-01-27T00:28:42;5.12;83.58
75022;SHT31;63583;49.976;20.182;2024-01-27T00:32:42;5.06;83.35
75022;SHT31;63583;49.976;20.182;2024-01-27T00:35:08;5.07;83.56
75022;SHT31;63583;49.976;20.182;2024-01-27T00:40:10;4.90;83.53
75022;SHT31;63583;49.976;20.182;2024-01-27T00:42:37;4.90;82.64
75022;SHT31;63583;49.976;20.182;2024-01-27T00:45:04;4.85;82.54
75022;SHT31;63583;49.976;20.182;2024-01-27T00:47:31;4.86;81.99
75022;SHT31;63583;49.976;20.182;2024-01-27T00:49:56;4.93;81.01
75022;SHT31;63583;49.976;20.182;2024-01-27T00:52:22;4.97;79.51
75022;SHT31;63583;49.976;20.182;2024-01-27T00:54:48;4.96;78.72
75022;SHT31;63583;49.976;20.182;2024-01-27T00:57:14;5.03;77.43
75022;SHT31;63583;49.976;20.182;2024-01-27T00:59:40;5.07;77.78
75022;SHT31;63583;49.976;20.182;2024-01-27T01:02:06;5.00;76.93
75022;SHT31;63583;49.976;20.182;2024-01-27T01:04:32;4.99;77.44
75022;SHT31;63583;49.976;20.182;2024-01-27T01:06:58;4.95;76.88
75022;SHT31;63583;49.976;20.182;2024-01-27T01:09:25;4.97;77.42
75022;SHT31;63583;49.976;20.182;2024-01-27T01:11:51;4.99;77.81
75022;SHT31;63583;49.976;20.182;2024-01-27T01:14:17;4.90;79.43
75022;SHT31;63583;49.976;20.182;2024-01-27T01:16:43;4.79;81.45
75022;SHT31;63583;49.976;20.182;2024-01-27T01:19:08;4.61;83.03
75022;SHT31;63583;49.976;20.182;2024-01-27T01:21:34;4.48;83.61
75022;SHT31;63583;49.976;20.182;2024-01-27T01:24:00;4.44;83.08
75022;SHT31;63583;49.976;20.182;2024-01-27T01:26:26;4.33;83.36
75022;SHT31;63583;49.976;20.182;2024-01-27T01:28:52;4.40;82.93
75022;SHT31;63583;49.976;20.182;2024-01-27T01:31:18;4.36;82.91
75022;SHT31;63583;49.976;20.182;2024-01-27T01:33:44;4.31;83.51
75022;SHT31;63583;49.976;20.182;2024-01-27T01:36:10;4.38;82.93
75022;SHT31;63583;49.976;20.182;2024-01-27T01:38:36;4.41;83.34
75022;SHT31;63583;49.976;20.182;2024-01-27T01:41:02;4.45;83.60
75022;SHT31;63583;49.976;20.182;2024-01-27T01:43:27;4.41;83.77
75022;SHT31;63583;49.976;20.182;2024-01-27T01:45:53;4.41;83.71
75022;SHT31;63583;49.976;20.182;2024-01-27T01:48:19;4.45;83.83
75022;SHT31;63583;49.976;20.182;2024-01-27T01:50:46;4.44;83.30
75022;SHT31;63583;49.976;20.182;2024-01-27T01:53:13;4.41;83.46
75022;SHT31;63583;49.976;20.182;2024-01-27T01:55:39;4.47;83.16
75022;SHT31;63583;49.976;20.182;2024-01-27T01:58:05;4.34;83.32
75022;SHT31;63583;49.976;20.182;2024-01-27T02:00:32;4.37;83.39
75022;SHT31;63583;49.976;20.182;2024-01-27T02:02:58;4.34;83.90
75022;SHT31;63583;49.976;20.182;2024-01-27T02:05:24;4.28;83.87
75022;SHT31;63583;49.976;20.182;2024-01-27T02:07:50;4.36;82.95
75022;SHT31;63583;49.976;20.182;2024-01-27T02:10:17;4.30;82.62
75022;SHT31;63583;49.976;20.182;2024-01-27T02:12:44;4.28;82.21
75022;SHT31;63583;49.976;20.182;2024-01-27T02:15:11;4.28;81.80
75022;SHT31;63583;49.976;20.182;2024-01-27T02:17:38;4.33;81.01
75022;SHT31;63583;49.976;20.182;2024-01-27T02:20:06;4.34;80.83
75022;SHT31;63583;49.976;20.182;2024-01-27T02:22:35;4.33;81.52
75022;SHT31;63583;49.976;20.182;2024-01-27T02:25:02;4.25;81.55
75022;SHT31;63583;49.976;20.182;2024-01-27T02:27:29;4.21;81.01
75022;SHT31;63583;49.976;20.182;2024-01-27T02:29:55;4.18;81.90
75022;SHT31;63583;49.976;20.182;2024-01-27T02:32:20;4.14;82.05
75022;SHT31;63583;49.976;20.182;2024-01-27T02:34:46;4.09;82.64
75022;SHT31;63583;49.976;20.182;2024-01-27T02:37:12;4.09;82.80
75022;SHT31;63583;49.976;20.182;2024-01-27T02:39:38;3.94;83.75
75022;SHT31;63583;49.976;20.182;2024-01-27T02:42:06;3.96;83.43
75022;SHT31;63583;49.976;20.182;2024-01-27T02:44:32;3.97;83.22
75022;SHT31;63583;49.976;20.182;2024-01-27T02:46:57;4.00;83.02
75022;SHT31;63583;49.976;20.182;2024-01-27T02:49:23;3.97;83.09
75022;SHT31;63583;49.976;20.182;2024-01-27T02:51:49;4.04;82.54
75022;SHT31;63583;49.976;20.182;2024-01-27T02:54:15;4.00;82.41
75022;SHT31;63583;49.976;20.182;2024-01-27T02:56:41;3.94;82.24
75022;SHT31;63583;49.976;20.182;2024-01-27T02:59:07;3.89;83.11
75022;SHT31;63583;49.976;20.182;2024-01-27T03:01:32;3.96;82.65
75022;SHT31;63583;49.976;20.182;2024-01-27T03:03:58;3.97;82.51
75022;SHT31;63583;49.976;20.182;2024-01-27T03:06:24;3.89;83.36
75022;SHT31;63583;49.976;20.182;2024-01-27T03:08:50;3.90;83.98
75022;SHT31;63583;49.976;20.182;2024-01-27T03:11:16;3.78;83.97
75022;SHT31;63583;49.976;20.182;2024-01-27T03:13:42;3.80;83.36
75022;SHT31;63583;49.976;20.182;2024-01-27T03:16:11;3.87;83.32
75022;SHT31;63583;49.976;20.182;2024-01-27T03:18:37;3.82;82.84
75022;SHT31;63583;49.976;20.182;2024-01-27T03:21:03;3.73;83.00
75022;SHT31;63583;49.976;20.182;2024-01-27T03:23:29;3.93;81.54
75022;SHT31;63583;49.976;20.182;2024-01-27T03:25:55;3.86;81.59
75022;SHT31;63583;49.976;20.182;2024-01-27T03:28:21;3.85;81.35
75022;SHT31;63583;49.976;20.182;2024-01-27T03:30:47;3.80;80.27
75022;SHT31;63583;49.976;20.182;2024-01-27T03:33:13;3.82;80.34
75022;SHT31;63583;49.976;20.182;2024-01-27T03:35:42;3.86;79.77
75022;SHT31;63583;49.976;20.182;2024-01-27T03:38:07;3.93;78.71
75022;SHT31;63583;49.976;20.182;2024-01-27T03:40:33;3.93;78.51
75022;SHT31;63583;49.976;20.182;2024-01-27T03:42:59;3.94;78.76
75022;SHT31;63583;49.976;20.182;2024-01-27T03:45:25;4.01;76.77
75022;SHT31;63583;49.976;20.182;2024-01-27T03:47:51;3.97;76.66
75022;SHT31;63583;49.976;20.182;2024-01-27T03:50:17;4.03;76.16
75022;SHT31;63583;49.976;20.182;2024-01-27T03:52:43;4.09;75.46
75022;SHT31;63583;49.976;20.182;2024-01-27T03:55:09;4.09;73.62
75022;SHT31;63583;49.976;20.182;2024-01-27T03:57:35;4.16;73.90
75022;SHT31;63583;49.976;20.182;2024-01-27T04:00:01;4.17;73.44
75022;SHT31;63583;49.976;20.182;2024-01-27T04:02:27;4.16;74.18
75022;SHT31;63583;49.976;20.182;2024-01-27T04:04:52;4.04;76.01
75022;SHT31;63583;49.976;20.182;2024-01-27T04:07:18;4.21;75.80
75022;SHT31;63583;49.976;20.182;2024-01-27T04:09:44;4.14;75.85
75022;SHT31;63583;49.976;20.182;2024-01-27T04:12:10;4.11;75.38
75022;SHT31;63583;49.976;20.182;2024-01-27T04:14:36;4.10;75.62
75022;SHT31;63583;49.976;20.182;2024-01-27T04:17:02;4.04;75.50
75022;SHT31;63583;49.976;20.182;2024-01-27T04:19:28;4.03;75.69
75022;SHT31;63583;49.976;20.182;2024-01-27T04:21:54;4.00;75.17
75022;SHT31;63583;49.976;20.182;2024-01-27T04:24:19;4.00;75.65
75022;SHT31;63583;49.976;20.182;2024-01-27T04:26:45;3.99;75.15
75022;SHT31;63583;49.976;20.182;2024-01-27T04:29:11;4.03;75.58
75022;SHT31;63583;49.976;20.182;2024-01-27T04:31:40;4.01;75.62
75022;SHT31;63583;49.976;20.182;2024-01-27T04:34:06;3.94;76.15
75022;SHT31;63583;49.976;20.182;2024-01-27T04:36:32;3.79;76.83
75022;SHT31;63583;49.976;20.182;2024-01-27T04:38:58;3.82;76.56
75022;SHT31;63583;49.976;20.182;2024-01-27T04:41:24;3.83;76.82
75022;SHT31;63583;49.976;20.182;2024-01-27T04:43:50;3.87;76.56
75022;SHT31;63583;49.976;20.182;2024-01-27T04:46:16;3.89;76.20
75022;SHT31;63583;49.976;20.182;2024-01-27T04:48:42;3.93;75.69
75022;SHT31;63583;49.976;20.182;2024-01-27T04:51:08;3.96;76.10
75022;SHT31;63583;49.976;20.182;2024-01-27T04:53:34;3.94;76.07
75022;SHT31;63583;49.976;20.182;2024-01-27T04:56:00;3.86;77.07
75022;SHT31;63583;49.976;20.182;2024-01-27T04:58:25;3.87;78.81
75022;SHT31;63583;49.976;20.182;2024-01-27T05:00:52;3.58;81.13
75022;SHT31;63583;49.976;20.182;2024-01-27T05:03:17;3.65;82.19
75022;SHT31;63583;49.976;20.182;2024-01-27T05:05:43;3.42;83.81
75022;SHT31;63583;49.976;20.182;2024-01-27T05:08:09;3.36;84.77
75022;SHT31;63583;49.976;20.182;2024-01-27T05:10:35;3.35;85.27
75022;SHT31;63583;49.976;20.182;2024-01-27T05:13:02;3.36;84.94
75022;SHT31;63583;49.976;20.182;2024-01-27T05:15:28;3.30;84.60
75022;SHT31;63583;49.976;20.182;2024-01-27T05:17:53;3.21;85.19
75022;SHT31;63583;49.976;20.182;2024-01-27T05:20:19;3.21;85.33
75022;SHT31;63583;49.976;20.182;2024-01-27T05:22:45;3.11;86.05
75022;SHT31;63583;49.976;20.182;2024-01-27T05:25:12;3.11;86.37
75022;SHT31;63583;49.976;20.182;2024-01-27T05:27:38;3.15;85.58
75022;SHT31;63583;49.976;20.182;2024-01-27T05:30:06;3.17;85.88
75022;SHT31;63583;49.976;20.182;2024-01-27T05:32:32;3.08;86.25
75022;SHT31;63583;49.976;20.182;2024-01-27T05:34:58;3.04;86.18
75022;SHT31;63583;49.976;20.182;2024-01-27T05:37:23;3.07;87.19
75022;SHT31;63583;49.976;20.182;2024-01-27T05:39:49;3.08;86.71
75022;SHT31;63583;49.976;20.182;2024-01-27T05:42:15;3.03;85.83
75022;SHT31;63583;49.976;20.182;2024-01-27T05:44:41;3.06;85.18
75022;SHT31;63583;49.976;20.182;2024-01-27T05:47:07;3.14;85.06
75022;SHT31;63583;49.976;20.182;2024-01-27T05:49:33;3.18;84.46
75022;SHT31;63583;49.976;20.182;2024-01-27T05:51:59;3.18;84.22
75022;SHT31;63583;49.976;20.182;2024-01-27T05:54:25;3.18;84.02
75022;SHT31;63583;49.976;20.182;2024-01-27T05:56:50;3.24;84.24
75022;SHT31;63583;49.976;20.182;2024-01-27T05:59:16;3.28;82.58
75022;SHT31;63583;49.976;20.182;2024-01-27T06:01:42;3.32;82.16
75022;SHT31;63583;49.976;20.182;2024-01-27T06:04:10;3.31;82.36
75022;SHT31;63583;49.976;20.182;2024-01-27T06:06:38;3.27;82.59
75022;SHT31;63583;49.976;20.182;2024-01-27T06:09:05;3.24;82.41
75022;SHT31;63583;49.976;20.182;2024-01-27T06:11:31;3.39;81.35
75022;SHT31;63583;49.976;20.182;2024-01-27T06:13:57;3.35;81.33
75022;SHT31;63583;49.976;20.182;2024-01-27T06:16:23;3.39;81.57
75022;SHT31;63583;49.976;20.182;2024-01-27T06:18:49;3.46;81.42
75022;SHT31;63583;49.976;20.182;2024-01-27T06:21:15;3.41;81.63
75022;SHT31;63583;49.976;20.182;2024-01-27T06:23:41;3.39;81.65
75022;SHT31;63583;49.976;20.182;2024-01-27T06:26:07;3.34;82.04
75022;SHT31;63583;49.976;20.182;2024-01-27T06:28:34;3.39;82.18
75022;SHT31;63583;49.976;20.182;2024-01-27T06:31:01;3.38;81.76
75022;SHT31;63583;49.976;20.182;2024-01-27T06:33:27;3.44;81.45
75022;SHT31;63583;49.976;20.182;2024-01-27T06:35:53;3.34;81.84
75022;SHT31;63583;49.976;20.182;2024-01-27T06:38:19;3.31;81.65
75022;SHT31;63583;49.976;20.182;2024-01-27T06:40:45;3.34;81.29
75022;SHT31;63583;49.976;20.182;2024-01-27T06:43:14;3.31;81.59
75022;SHT31;63583;49.976;20.182;2024-01-27T06:45:40;3.34;81.01
75022;SHT31;63583;49.976;20.182;2024-01-27T06:48:06;3.30;80.74
75022;SHT31;63583;49.976;20.182;2024-01-27T06:50:33;3.30;80.13
75022;SHT31;63583;49.976;20.182;2024-01-27T06:52:59;3.39;79.42
75022;SHT31;63583;49.976;20.182;2024-01-27T06:55:26;3.41;79.59
75022;SHT31;63583;49.976;20.182;2024-01-27T06:57:52;3.48;78.37
75022;SHT31;63583;49.976;20.182;2024-01-27T07:00:18;3.51;78.64
75022;SHT31;63583;49.976;20.182;2024-01-27T07:02:44;3.42;78.85
75022;SHT31;63583;49.976;20.182;2024-01-27T07:05:10;3.46;78.66
75022;SHT31;63583;49.976;20.182;2024-01-27T07:07:38;3.52;78.24
75022;SHT31;63583;49.976;20.182;2024-01-27T07:10:04;3.46;77.60
75022;SHT31;63583;49.976;20.182;2024-01-27T07:12:33;3.45;78.49
75022;SHT31;63583;49.976;20.182;2024-01-27T07:14:59;3.54;78.14
75022;SHT31;63583;49.976;20.182;2024-01-27T07:17:26;3.51;78.13
75022;SHT31;63583;49.976;20.182;2024-01-27T07:19:53;3.44;78.55
75022;SHT31;63583;49.976;20.182;2024-01-27T07:22:19;3.41;79.12
75022;SHT31;63583;49.976;20.182;2024-01-27T07:24:44;3.35;79.03
75022;SHT31;63583;49.976;20.182;2024-01-27T07:27:12;3.38;79.33
75022;SHT31;63583;49.976;20.182;2024-01-27T07:29:39;3.38;78.59
75022;SHT31;63583;49.976;20.182;2024-01-27T07:32:05;3.36;78.80
75022;SHT31;63583;49.976;20.182;2024-01-27T07:34:33;3.35;79.04
75022;SHT31;63583;49.976;20.182;2024-01-27T07:36:59;3.46;78.54
75022;SHT31;63583;49.976;20.182;2024-01-27T07:39:24;3.38;78.48
75022;SHT31;63583;49.976;20.182;2024-01-27T07:41:50;3.44;78.35
75022;SHT31;63583;49.976;20.182;2024-01-27T07:44:18;3.50;78.05
75022;SHT31;63583;49.976;20.182;2024-01-27T07:46:44;3.50;78.37
75022;SHT31;63583;49.976;20.182;2024-01-27T07:49:10;3.44;78.02
75022;SHT31;63583;49.976;20.182;2024-01-27T07:51:38;3.51;77.74
75022;SHT31;63583;49.976;20.182;2024-01-27T07:54:04;3.51;77.62
75022;SHT31;63583;49.976;20.182;2024-01-27T07:56:30;3.58;77.28
75022;SHT31;63583;49.976;20.182;2024-01-27T07:58:56;3.58;76.77
75022;SHT31;63583;49.976;20.182;2024-01-27T08:01:22;3.58;76.48
75022;SHT31;63583;49.976;20.182;2024-01-27T08:03:47;3.56;76.55
75022;SHT31;63583;49.976;20.182;2024-01-27T08:06:19;3.55;76.26
75022;SHT31;63583;49.976;20.182;2024-01-27T08:08:46;3.48;76.76
75022;SHT31;63583;49.976;20.182;2024-01-27T08:11:13;3.55;76.84
75022;SHT31;63583;49.976;20.182;2024-01-27T08:13:39;3.50;75.60
75022;SHT31;63583;49.976;20.182;2024-01-27T08:16:05;3.51;75.60
75022;SHT31;63583;49.976;20.182;2024-01-27T08:18:31;3.56;75.98
75022;SHT31;63583;49.976;20.182;2024-01-27T08:20:57;3.61;75.81
75022;SHT31;63583;49.976;20.182;2024-01-27T08:23:23;3.73;74.56
75022;SHT31;63583;49.976;20.182;2024-01-27T08:25:49;3.69;73.96
75022;SHT31;63583;49.976;20.182;2024-01-27T08:28:18;3.69;74.05
75022;SHT31;63583;49.976;20.182;2024-01-27T08:30:44;3.71;74.15
75022;SHT31;63583;49.976;20.182;2024-01-27T08:33:10;3.75;73.85
75022;SHT31;63583;49.976;20.182;2024-01-27T08:35:36;3.75;73.60
75022;SHT31;63583;49.976;20.182;2024-01-27T08:38:01;3.75;73.34
75022;SHT31;63583;49.976;20.182;2024-01-27T08:40:29;3.73;73.94
75022;SHT31;63583;49.976;20.182;2024-01-27T08:42:55;3.71;73.01
75022;SHT31;63583;49.976;20.182;2024-01-27T08:45:22;3.80;74.35
75022;SHT31;63583;49.976;20.182;2024-01-27T08:47:48;3.79;73.60
75022;SHT31;63583;49.976;20.182;2024-01-27T08:50:14;3.82;74.43
75022;SHT31;63583;49.976;20.182;2024-01-27T08:52:40;3.85;73.60
75022;SHT31;63583;49.976;20.182;2024-01-27T08:55:06;3.87;73.82
75022;SHT31;63583;49.976;20.182;2024-01-27T08:57:32;3.80;73.34
75022;SHT31;63583;49.976;20.182;2024-01-27T08:59:58;3.78;73.02
75022;SHT31;63583;49.976;20.182;2024-01-27T09:02:24;3.85;73.38
75022;SHT31;63583;49.976;20.182;2024-01-27T09:04:50;3.82;72.70
75022;SHT31;63583;49.976;20.182;2024-01-27T09:07:16;3.80;73.82
75022;SHT31;63583;49.976;20.182;2024-01-27T09:09:43;3.82;73.43
75022;SHT31;63583;49.976;20.182;2024-01-27T09:12:09;3.90;74.36
75022;SHT31;63583;49.976;20.182;2024-01-27T09:14:35;3.80;74.08
75022;SHT31;63583;49.976;20.182;2024-01-27T09:17:01;3.68;74.01
75022;SHT31;63583;49.976;20.182;2024-01-27T09:19:27;3.68;74.49
75022;SHT31;63583;49.976;20.182;2024-01-27T09:21:53;3.68;75.23
75022;SHT31;63583;49.976;20.182;2024-01-27T09:24:19;3.78;75.04
75022;SHT31;63583;49.976;20.182;2024-01-27T09:26:45;3.82;75.49
75022;SHT31;63583;49.976;20.182;2024-01-27T09:29:11;3.73;75.93
75022;SHT31;63583;49.976;20.182;2024-01-27T09:31:38;3.69;76.17
75022;SHT31;63583;49.976;20.182;2024-01-27T09:34:04;3.51;76.64
75022;SHT31;63583;49.976;20.182;2024-01-27T09:36:29;3.50;77.07
75022;SHT31;63583;49.976;20.182;2024-01-27T09:38:55;3.52;77.50
75022;SHT31;63583;49.976;20.182;2024-01-27T09:41:21;3.51;78.67
75022;SHT31;63583;49.976;20.182;2024-01-27T09:43:47;3.25;80.90
75022;SHT31;63583;49.976;20.182;2024-01-27T09:46:17;3.10;81.21
75022;SHT31;63583;49.976;20.182;2024-01-27T09:48:43;2.89;82.85
75022;SHT31;63583;49.976;20.182;2024-01-27T09:51:10;2.86;83.55
75022;SHT31;63583;49.976;20.182;2024-01-27T09:53:36;2.90;84.63
75022;SHT31;63583;49.976;20.182;2024-01-27T09:56:03;2.85;84.84
75022;SHT31;63583;49.976;20.182;2024-01-27T09:58:30;2.67;86.55
75022;SHT31;63583;49.976;20.182;2024-01-27T10:00:58;2.69;87.29
75022;SHT31;63583;49.976;20.182;2024-01-27T10:03:26;2.46;88.39
75022;SHT31;63583;49.976;20.182;2024-01-27T10:05:53;2.56;88.60
75022;SHT31;63583;49.976;20.182;2024-01-27T10:08:23;2.53;88.32
75022;SHT31;63583;49.976;20.182;2024-01-27T10:10:58;2.59;89.28
75022;SHT31;63583;49.976;20.182;2024-01-27T10:13:26;2.53;89.09
75022;SHT31;63583;49.976;20.182;2024-01-27T10:16:06;2.58;88.68
75022;SHT31;63583;49.976;20.182;2024-01-27T10:18:34;2.37;89.58
75022;SHT31;63583;49.976;20.182;2024-01-27T10:21:00;2.29;90.35
75022;SHT31;63583;49.976;20.182;2024-01-27T10:23:26;2.32;90.97
75022;SHT31;63583;49.976;20.182;2024-01-27T10:25:52;2.27;90.91
75022;SHT31;63583;49.976;20.182;2024-01-27T10:28:20;2.15;91.89
75022;SHT31;63583;49.976;20.182;2024-01-27T10:30:47;2.08;91.79
75022;SHT31;63583;49.976;20.182;2024-01-27T10:33:14;1.96;92.26
75022;SHT31;63583;49.976;20.182;2024-01-27T10:35:41;1.84;92.79
75022;SHT31;63583;49.976;20.182;2024-01-27T10:38:07;1.83;93.33
75022;SHT31;63583;49.976;20.182;2024-01-27T10:40:33;1.76;93.57
75022;SHT31;63583;49.976;20.182;2024-01-27T10:43:07;1.71;93.91
75022;SHT31;63583;49.976;20.182;2024-01-27T10:45:40;1.71;94.07
75022;SHT31;63583;49.976;20.182;2024-01-27T10:48:10;1.66;93.93
75022;SHT31;63583;49.976;20.182;2024-01-27T10:50:38;1.67;93.99
75022;SHT31;63583;49.976;20.182;2024-01-27T10:53:09;1.71;94.44
75022;SHT31;63583;49.976;20.182;2024-01-27T10:55:35;1.77;93.97
75022;SHT31;63583;49.976;20.182;2024-01-27T10:58:02;1.89;93.78
75022;SHT31;63583;49.976;20.182;2024-01-27T11:00:29;1.90;94.22
75022;SHT31;63583;49.976;20.182;2024-01-27T11:03:01;1.87;94.05
75022;SHT31;63583;49.976;20.182;2024-01-27T11:05:29;1.83;93.87
75022;SHT31;63583;49.976;20.182;2024-01-27T11:07:56;1.89;93.61
75022;SHT31;63583;49.976;20.182;2024-01-27T11:10:24;1.90;93.77
75022;SHT31;63583;49.976;20.182;2024-01-27T11:12:53;1.90;93.44
75022;SHT31;63583;49.976;20.182;2024-01-27T11:15:21;1.90;93.16
75022;SHT31;63583;49.976;20.182;2024-01-27T11:17:47;1.94;93.24
75022;SHT31;63583;49.976;20.182;2024-01-27T11:20:13;1.89;93.56
75022;SHT31;63583;49.976;20.182;2024-01-27T11:22:42;2.00;93.61
75022;SHT31;63583;49.976;20.182;2024-01-27T11:27:42;2.03;93.46
75022;SHT31;63583;49.976;20.182;2024-01-27T11:30:31;1.98;93.40
75022;SHT31;63583;49.976;20.182;2024-01-27T11:33:02;2.06;92.83
75022;SHT31;63583;49.976;20.182;2024-01-27T11:35:29;2.03;92.81
75022;SHT31;63583;49.976;20.182;2024-01-27T11:37:55;2.08;93.13
75022;SHT31;63583;49.976;20.182;2024-01-27T11:40:21;2.14;93.22
75022;SHT31;63583;49.976;20.182;2024-01-27T11:43:17;2.04;92.50
75022;SHT31;63583;49.976;20.182;2024-01-27T11:45:42;2.11;93.13
75022;SHT31;63583;49.976;20.182;2024-01-27T11:48:09;2.21;92.72
75022;SHT31;63583;49.976;20.182;2024-01-27T11:50:34;2.25;93.13
75022;SHT31;63583;49.976;20.182;2024-01-27T11:53:00;2.18;93.16
75022;SHT31;63583;49.976;20.182;2024-01-27T11:55:26;2.21;93.09
75022;SHT31;63583;49.976;20.182;2024-01-27T11:57:52;2.20;93.28
75022;SHT31;63583;49.976;20.182;2024-01-27T12:00:18;2.20;93.50
75022;SHT31;63583;49.976;20.182;2024-01-27T12:02:44;2.29;93.49
75022;SHT31;63583;49.976;20.182;2024-01-27T12:05:09;2.25;93.34
75022;SHT31;63583;49.976;20.182;2024-01-27T12:07:36;2.28;93.85
75022;SHT31;63583;49.976;20.182;2024-01-27T12:10:02;2.17;93.48
75022;SHT31;63583;49.976;20.182;2024-01-27T12:12:28;2.25;93.77
75022;SHT31;63583;49.976;20.182;2024-01-27T12:14:53;2.22;93.67
75022;SHT31;63583;49.976;20.182;2024-01-27T12:17:20;2.18;93.53
75022;SHT31;63583;49.976;20.182;2024-01-27T12:19:49;2.10;94.15
75022;SHT31;63583;49.976;20.182;2024-01-27T12:22:27;2.08;94.26
75022;SHT31;63583;49.976;20.182;2024-01-27T12:24:54;2.01;94.29
75022;SHT31;63583;49.976;20.182;2024-01-27T12:27:21;2.07;94.18
75022;SHT31;63583;49.976;20.182;2024-01-27T12:29:48;2.14;94.13
75022;SHT31;63583;49.976;20.182;2024-01-27T12:32:15;2.13;94.50
75022;SHT31;63583;49.976;20.182;2024-01-27T12:34:42;2.27;94.60
75022;SHT31;63583;49.976;20.182;2024-01-27T12:37:11;2.25;94.42
75022;SHT31;63583;49.976;20.182;2024-01-27T12:39:37;2.31;94.40
75022;SHT31;63583;49.976;20.182;2024-01-27T12:42:04;2.28;94.65
75022;SHT31;63583;49.976;20.182;2024-01-27T12:44:30;2.29;94.13
75022;SHT31;63583;49.976;20.182;2024-01-27T12:46:56;2.29;94.73
75022;SHT31;63583;49.976;20.182;2024-01-27T12:49:22;2.24;94.85
75022;SHT31;63583;49.976;20.182;2024-01-27T12:51:48;2.22;94.47
75022;SHT31;63583;49.976;20.182;2024-01-27T12:54:14;2.21;94.54
75022;SHT31;63583;49.976;20.182;2024-01-27T12:56:41;2.28;94.92
75022;SHT31;63583;49.976;20.182;2024-01-27T12:59:07;2.28;94.82
75022;SHT31;63583;49.976;20.182;2024-01-27T13:01:34;2.22;94.54
75022;SHT31;63583;49.976;20.182;2024-01-27T13:03:59;2.24;94.70
75022;SHT31;63583;49.976;20.182;2024-01-27T13:06:26;2.22;94.88
75022;SHT31;63583;49.976;20.182;2024-01-27T13:08:52;2.08;95.15
75022;SHT31;63583;49.976;20.182;2024-01-27T13:11:19;2.17;95.24
75022;SHT31;63583;49.976;20.182;2024-01-27T13:13:45;2.21;95.09
75022;SHT31;63583;49.976;20.182;2024-01-27T13:16:11;2.22;95.07
75022;SHT31;63583;49.976;20.182;2024-01-27T13:18:37;2.08;95.11
75022;SHT31;63583;49.976;20.182;2024-01-27T13:21:03;2.14;94.81
75022;SHT31;63583;49.976;20.182;2024-01-27T13:23:32;2.08;95.35
75022;SHT31;63583;49.976;20.182;2024-01-27T13:25:58;2.10;95.46
75022;SHT31;63583;49.976;20.182;2024-01-27T13:28:24;2.04;95.18
75022;SHT31;63583;49.976;20.182;2024-01-27T13:30:49;2.04;95.56
75022;SHT31;63583;49.976;20.182;2024-01-27T13:33:16;2.07;95.28
75022;SHT31;63583;49.976;20.182;2024-01-27T13:35:42;2.00;95.54
75022;SHT31;63583;49.976;20.182;2024-01-27T13:38:13;2.07;95.34
75022;SHT31;63583;49.976;20.182;2024-01-27T13:40:39;2.01;95.50
75022;SHT31;63583;49.976;20.182;2024-01-27T13:43:04;1.98;95.89
75022;SHT31;63583;49.976;20.182;2024-01-27T13:45:31;2.00;95.33
75022;SHT31;63583;49.976;20.182;2024-01-27T13:47:57;1.98;95.96
75022;SHT31;63583;49.976;20.182;2024-01-27T13:50:23;1.94;96.07
75022;SHT31;63583;49.976;20.182;2024-01-27T13:52:55;2.00;95.72
75022;SHT31;63583;49.976;20.182;2024-01-27T13:55:21;1.94;95.83
75022;SHT31;63583;49.976;20.182;2024-01-27T13:57:48;2.03;95.62
75022;SHT31;63583;49.976;20.182;2024-01-27T14:00:15;1.96;95.91
75022;SHT31;63583;49.976;20.182;2024-01-27T14:02:41;1.93;96.00
75022;SHT31;63583;49.976;20.182;2024-01-27T14:05:07;1.96;96.25
75022;SHT31;63583;49.976;20.182;2024-01-27T14:07:33;1.94;96.60
75022;SHT31;63583;49.976;20.182;2024-01-27T14:10:01;1.87;96.93
75022;SHT31;63583;49.976;20.182;2024-01-27T14:12:27;1.93;96.83
75022;SHT31;63583;49.976;20.182;2024-01-27T14:15:01;2.01;96.72
75022;SHT31;63583;49.976;20.182;2024-01-27T14:17:27;1.93;96.77
75022;SHT31;63583;49.976;20.182;2024-01-27T14:19:54;1.98;96.73
75022;SHT31;63583;49.976;20.182;2024-01-27T14:22:19;2.01;96.61
75022;SHT31;63583;49.976;20.182;2024-01-27T14:24:46;2.06;96.51
75022;SHT31;63583;49.976;20.182;2024-01-27T14:27:11;2.00;96.59
75022;SHT31;63583;49.976;20.182;2024-01-27T14:29:39;2.01;96.76
75022;SHT31;63583;49.976;20.182;2024-01-27T14:32:05;2.11;96.76
75022;SHT31;63583;49.976;20.182;2024-01-27T14:34:32;1.98;97.36
75022;SHT31;63583;49.976;20.182;2024-01-27T14:36:58;1.96;97.09
75022;SHT31;63583;49.976;20.182;2024-01-27T14:39:25;2.04;97.29
75022;SHT31;63583;49.976;20.182;2024-01-27T14:41:50;2.14;97.21
75022;SHT31;63583;49.976;20.182;2024-01-27T14:44:16;2.22;96.65
75022;SHT31;63583;49.976;20.182;2024-01-27T14:46:42;2.18;96.89
75022;SHT31;63583;49.976;20.182;2024-01-27T14:49:08;2.25;96.56
75022;SHT31;63583;49.976;20.182;2024-01-27T14:51:34;2.29;96.38
75022;SHT31;63583;49.976;20.182;2024-01-27T14:54:01;2.15;96.44
75022;SHT31;63583;49.976;20.182;2024-01-27T14:56:32;2.18;96.73
75022;SHT31;63583;49.976;20.182;2024-01-27T14:58:58;2.24;96.57
75022;SHT31;63583;49.976;20.182;2024-01-27T15:01:25;2.22;96.43
75022;SHT31;63583;49.976;20.182;2024-01-27T15:03:51;2.25;96.58
75022;SHT31;63583;49.976;20.182;2024-01-27T15:06:16;2.22;96.64
75022;SHT31;63583;49.976;20.182;2024-01-27T15:08:43;2.24;96.87
75022;SHT31;63583;49.976;20.182;2024-01-27T15:11:11;2.17;96.94
75022;SHT31;63583;49.976;20.182;2024-01-27T15:13:37;2.13;96.81
75022;SHT31;63583;49.976;20.182;2024-01-27T15:16:03;2.08;96.77
75022;SHT31;63583;49.976;20.182;2024-01-27T15:18:29;2.14;97.25
75022;SHT31;63583;49.976;20.182;2024-01-27T15:20:55;2.11;97.29
75022;SHT31;63583;49.976;20.182;2024-01-27T15:23:21;2.14;97.15
75022;SHT31;63583;49.976;20.182;2024-01-27T15:25:50;2.07;97.29
75022;SHT31;63583;49.976;20.182;2024-01-27T15:28:16;2.14;97.30
75022;SHT31;63583;49.976;20.182;2024-01-27T15:30:42;2.07;97.48
75022;SHT31;63583;49.976;20.182;2024-01-27T15:33:08;2.10;97.29